createdAt,value
2022-08-17T00:00:43.100Z,100610.47
2022-08-17T00:03:13.649Z,100607.91
2022-08-17T00:05:48.502Z,100608.84
2022-08-17T00:08:21.532Z,100606.28
2022-08-17T00:10:51.805Z,100603.69
2022-08-17T00:13:24.700Z,100609.03
2022-08-17T00:15:55.892Z,100611.78
2022-08-17T00:19:01.433Z,100604.78
2022-08-17T00:21:13.764Z,100610.16
2022-08-17T00:23:48.961Z,100604.94
2022-08-17T00:26:43.671Z,100606.75
2022-08-17T00:29:08.360Z,100612.91
2022-08-17T00:31:37.417Z,100613.81
2022-08-17T00:34:08.754Z,100618.22
2022-08-17T00:36:37.458Z,100611.19
2022-08-17T00:39:07.347Z,100626.13
2022-08-17T00:41:35.886Z,100609.38
2022-08-17T00:44:06.883Z,100613.81
2022-08-17T00:46:39.336Z,100616.34
2022-08-17T00:49:09.761Z,100616.34
2022-08-17T00:51:45.256Z,100610.25
2022-08-17T00:54:19.958Z,100622.69
2022-08-17T00:56:53.765Z,100627.19
2022-08-17T00:59:26.823Z,100621.94
2022-08-17T01:01:55.621Z,100619.38
2022-08-17T01:04:24.781Z,100622.88
2022-08-17T01:06:54.328Z,100630.81
2022-08-17T01:09:24.259Z,100624.59
2022-08-17T01:11:53.017Z,100633.38
2022-08-17T01:14:22.384Z,100640.41
2022-08-17T01:16:53.143Z,100635.09
2022-08-17T01:19:24.945Z,100637.72
2022-08-17T01:22:00.280Z,100634.22
2022-08-17T01:24:31.103Z,100631.56
2022-08-17T01:27:02.713Z,100632.44
2022-08-17T01:29:42.392Z,100637.72
2022-08-17T01:32:11.313Z,100637.72
2022-08-17T01:34:43.353Z,100637.72
2022-08-17T01:37:12.844Z,100640.41
2022-08-17T01:39:45.970Z,100644.88
2022-08-17T01:42:27.521Z,100640.56
2022-08-17T01:45:02.992Z,100639.69
2022-08-17T01:47:31.837Z,100647.69
2022-08-17T01:50:13.219Z,100639.81
2022-08-17T01:52:42.433Z,100644.28
2022-08-17T01:55:14.021Z,100643.47
2022-08-17T01:57:45.484Z,100641.69
2022-08-17T02:00:15.523Z,100636.44
2022-08-17T02:02:45.917Z,100639.16
2022-08-17T02:05:15.093Z,100638.25
2022-08-17T02:08:00.572Z,100634.78
2022-08-17T02:10:33.933Z,100636.63
2022-08-17T02:13:04.661Z,100637.53
2022-08-17T02:15:34.653Z,100640.28
2022-08-17T02:18:04.157Z,100649.13
2022-08-17T02:20:41.513Z,100646.53
2022-08-17T02:23:13.239Z,100650.13
2022-08-17T02:25:47.670Z,100652.88
2022-08-17T02:28:16.677Z,100647.63
2022-08-17T02:31:01.816Z,100649.53
2022-08-17T02:33:42.816Z,100646.91
2022-08-17T02:36:14.005Z,100643.44
2022-08-17T02:38:42.874Z,100639.91
2022-08-17T02:41:13.029Z,100637.31
2022-08-17T02:43:41.813Z,100639.16
2022-08-17T02:46:12.801Z,100640.09
2022-08-17T02:48:41.233Z,100643.66
2022-08-17T02:51:09.842Z,100637.56
2022-08-17T02:53:38.329Z,100636.75
2022-08-17T02:56:07.183Z,100644.66
2022-08-17T02:58:36.959Z,100647.31
2022-08-17T03:01:07.244Z,100637.66
2022-08-17T03:03:36.810Z,100637.66
2022-08-17T03:06:07.601Z,100639.47
2022-08-17T03:08:37.511Z,100635.94
2022-08-17T03:11:06.395Z,100635.03
2022-08-17T03:13:36.352Z,100635.94
2022-08-17T03:16:05.217Z,100639.50
2022-08-17T03:18:33.708Z,100632.50
2022-08-17T03:21:04.488Z,100636.06
2022-08-17T03:23:33.781Z,100637.91
2022-08-17T03:26:02.269Z,100644.91
2022-08-17T03:28:30.814Z,100642.34
2022-08-17T03:31:00.807Z,100634.44
2022-08-17T03:33:29.241Z,100632.69
2022-08-17T03:35:58.215Z,100635.34
2022-08-17T03:38:27.208Z,100624.75
2022-08-17T03:40:59.686Z,100637.91
2022-08-17T03:43:30.502Z,100637.88
2022-08-17T03:46:34.660Z,100631.69
2022-08-17T03:49:22.649Z,100632.53
2022-08-17T03:52:08.740Z,100625.47
2022-08-17T03:54:55.541Z,100628.09
2022-08-17T03:57:24.654Z,100632.44
2022-08-17T03:59:53.537Z,100630.69
2022-08-17T04:02:28.230Z,100629.81
2022-08-17T04:04:56.822Z,100634.19
2022-08-17T04:07:30.093Z,100635.03
2022-08-17T04:09:59.470Z,100636.81
2022-08-17T04:12:30.959Z,100639.41
2022-08-17T04:14:59.840Z,100634.97
2022-08-17T04:17:30.740Z,100642.91
2022-08-17T04:19:59.309Z,100642.00
2022-08-17T04:22:30.626Z,100637.56
2022-08-17T04:25:15.998Z,100644.56
2022-08-17T04:27:44.668Z,100639.25
2022-08-17T04:30:14.199Z,100640.13
2022-08-17T04:33:10.877Z,100641.91
2022-08-17T04:35:42.221Z,100639.25
2022-08-17T04:38:13.069Z,100648.00
2022-08-17T04:40:59.093Z,100652.44
2022-08-17T04:43:28.628Z,100649.78
2022-08-17T04:45:58.856Z,100656.84
2022-08-17T04:48:36.216Z,100663.03
2022-08-17T04:51:09.924Z,100653.38
2022-08-17T04:53:40.448Z,100664.84
2022-08-17T04:56:16.205Z,100661.31
2022-08-17T04:58:50.083Z,100665.69
2022-08-17T05:01:23.236Z,100662.13
2022-08-17T05:03:54.809Z,100663.84
2022-08-17T05:06:23.780Z,100661.16
2022-08-17T05:08:52.708Z,100667.28
2022-08-17T05:11:21.447Z,100661.97
2022-08-17T05:13:51.056Z,100669.81
2022-08-17T05:16:20.421Z,100668.84
2022-08-17T05:18:49.287Z,100678.50
2022-08-17T05:21:19.860Z,100683.69
2022-08-17T05:23:53.245Z,100678.38
2022-08-17T05:26:26.963Z,100678.28
2022-08-17T05:28:58.518Z,100676.44
2022-08-17T05:31:29.670Z,100679.00
2022-08-17T05:33:58.340Z,100680.66
2022-08-17T05:36:43.093Z,100687.69
2022-08-17T05:39:16.695Z,100686.66
2022-08-17T05:41:49.090Z,100680.41
2022-08-17T05:44:18.177Z,100684.75
2022-08-17T05:46:51.837Z,100689.09
2022-08-17T05:49:25.914Z,100687.28
2022-08-17T05:52:17.150Z,100685.41
2022-08-17T05:55:01.502Z,100694.97
2022-08-17T05:57:56.578Z,100699.28
2022-08-17T06:00:30.833Z,100695.59
2022-08-17T06:03:23.471Z,100700.75
2022-08-17T06:06:07.126Z,100701.34
2022-08-17T06:08:48.124Z,100703.56
2022-08-17T06:11:32.429Z,100692.63
2022-08-17T06:14:23.289Z,100705.47
2022-08-17T06:16:56.681Z,100704.41
2022-08-17T06:19:34.519Z,100714.81
2022-08-17T06:22:05.822Z,100715.59
2022-08-17T06:24:39.932Z,100714.53
2022-08-17T06:27:26.370Z,100710.06
2022-08-17T06:29:59.029Z,100703.72
2022-08-17T06:32:27.884Z,100710.69
2022-08-17T06:34:57.433Z,100715.94
2022-08-17T06:38:00.355Z,100717.59
2022-08-17T06:40:48.479Z,100707.00
2022-08-17T06:43:32.645Z,100715.66
2022-08-17T06:46:07.517Z,100720.81
2022-08-17T06:48:44.556Z,100726.84
2022-08-17T06:51:23.847Z,100718.72
2022-08-17T06:54:01.081Z,100720.38
2022-08-17T06:56:53.408Z,100718.47
2022-08-17T06:59:54.501Z,100722.69
2022-08-17T07:02:28.931Z,100716.28
2022-08-17T07:05:08.828Z,100715.31
2022-08-17T07:07:57.590Z,100725.75
2022-08-17T07:10:28.590Z,100720.22
2022-08-17T07:13:04.173Z,100724.09
2022-08-17T07:15:42.784Z,100722.00
2022-08-17T07:18:11.849Z,100727.84
2022-08-17T07:20:45.840Z,100724.94
2022-08-17T07:23:21.147Z,100729.16
2022-08-17T07:25:51.009Z,100726.38
2022-08-17T07:28:24.533Z,100723.56
2022-08-17T07:30:55.471Z,100722.59
2022-08-17T07:33:26.888Z,100726.00
2022-08-17T07:35:58.127Z,100732.97
2022-08-17T07:38:29.318Z,100726.56
2022-08-17T07:41:05.376Z,100729.88
2022-08-17T07:43:36.361Z,100730.53
2022-08-17T07:46:33.461Z,100732.09
2022-08-17T07:49:22.565Z,100738.00
2022-08-17T07:52:48.436Z,100734.25
2022-08-17T07:54:52.366Z,100736.50
2022-08-17T07:57:36.450Z,100733.44
2022-08-17T08:00:31.403Z,100730.47
2022-08-17T08:03:15.542Z,100736.94
2022-08-17T08:05:57.372Z,100735.72
2022-08-17T08:08:29.619Z,100732.84
2022-08-17T08:11:01.947Z,100736.38
2022-08-17T08:13:33.276Z,100732.66
2022-08-17T08:16:25.004Z,100736.84
2022-08-17T08:18:58.365Z,100735.88
2022-08-17T08:21:34.479Z,100735.66
2022-08-17T08:24:24.507Z,100740.84
2022-08-17T08:27:12.772Z,100746.06
2022-08-17T08:29:50.941Z,100743.34
2022-08-17T08:32:23.148Z,100749.38
2022-08-17T08:35:03.870Z,100749.00
2022-08-17T08:37:43.470Z,100746.91
2022-08-17T08:40:36.308Z,100742.22
2022-08-17T08:43:15.156Z,100737.63
2022-08-17T08:45:50.013Z,100737.63
2022-08-17T08:48:53.464Z,100733.78
2022-08-17T08:51:39.938Z,100737.88
2022-08-17T08:54:26.597Z,100731.56
2022-08-17T08:57:23.218Z,100731.31
2022-08-17T09:00:00.489Z,100732.00
2022-08-17T09:02:48.015Z,100734.50
2022-08-17T09:05:30.429Z,100726.28
2022-08-17T09:08:10.614Z,100730.56
2022-08-17T09:11:00.716Z,100733.75
2022-08-17T09:13:38.197Z,100734.38
2022-08-17T09:16:15.257Z,100731.44
2022-08-17T09:19:01.661Z,100732.13
2022-08-17T09:21:48.077Z,100724.59
2022-08-17T09:24:25.135Z,100731.88
2022-08-17T09:26:58.911Z,100727.00
2022-08-17T09:29:35.227Z,100729.38
2022-08-17T09:32:10.763Z,100729.03
2022-08-17T09:34:44.680Z,100718.44
2022-08-17T09:37:23.874Z,100720.28
2022-08-17T09:40:02.504Z,100718.34
2022-08-17T09:42:37.063Z,100717.09
2022-08-17T09:45:18.151Z,100722.06
2022-08-17T09:47:51.323Z,100729.78
2022-08-17T09:51:03.586Z,100734.16
2022-08-17T09:53:13.049Z,100735.59
2022-08-17T09:56:03.530Z,100727.25
2022-08-17T09:58:47.678Z,100718.88
2022-08-17T10:01:27.518Z,100723.47
2022-08-17T10:04:26.032Z,100727.31
2022-08-17T10:07:04.571Z,100722.44
2022-08-17T10:09:45.810Z,100720.53
2022-08-17T10:12:30.079Z,100718.69
2022-08-17T10:15:15.579Z,100714.09
2022-08-17T10:18:07.714Z,100716.63
2022-08-17T10:21:13.313Z,100711.72
2022-08-17T10:24:01.983Z,100711.56
2022-08-17T10:26:46.235Z,100700.66
2022-08-17T10:29:48.355Z,100702.97
2022-08-17T10:32:32.143Z,100711.38
2022-08-17T10:35:36.094Z,100717.94
2022-08-17T10:38:39.889Z,100720.09
2022-08-17T10:41:24.118Z,100724.28
2022-08-17T10:44:38.494Z,100718.44
2022-08-17T10:46:59.286Z,100709.34
2022-08-17T10:49:33.135Z,100718.31
2022-08-17T10:52:03.556Z,100725.53
2022-08-17T10:54:47.655Z,100710.28
2022-08-17T10:57:38.904Z,100715.41
2022-08-17T11:00:15.478Z,100713.13
2022-08-17T11:02:50.443Z,100713.13
2022-08-17T11:05:44.401Z,100710.59
2022-08-17T11:08:51.081Z,100707.22
2022-08-17T11:11:35.851Z,100702.38
2022-08-17T11:14:26.413Z,100702.41
2022-08-17T11:17:13.021Z,100700.03
2022-08-17T11:20:20.406Z,100701.75
2022-08-17T11:23:20.169Z,100695.38
2022-08-17T11:25:54.221Z,100691.56
2022-08-17T11:28:28.058Z,100684.38
2022-08-17T11:31:00.413Z,100681.59
2022-08-17T11:33:58.882Z,100685.81
2022-08-17T11:36:52.128Z,100682.38
2022-08-17T11:39:42.721Z,100685.63
2022-08-17T11:42:26.439Z,100682.38
2022-08-17T11:44:59.049Z,100678.72
2022-08-17T11:48:16.100Z,100672.00
2022-08-17T11:51:06.841Z,100670.97
2022-08-17T11:54:28.955Z,100666.50
2022-08-17T11:56:51.124Z,100665.22
2022-08-17T11:59:54.364Z,100676.78
2022-08-17T12:02:39.002Z,100666.81
2022-08-17T12:05:32.553Z,100665.22
2022-08-17T12:08:11.918Z,100660.69
2022-08-17T12:10:53.918Z,100657.88
2022-08-17T12:13:30.485Z,100657.34
2022-08-17T12:16:08.298Z,100660.69
2022-08-17T12:18:42.040Z,100662.97
2022-08-17T12:21:26.381Z,100661.13
2022-08-17T12:24:00.213Z,100664.59
2022-08-17T12:26:33.056Z,100661.78
2022-08-17T12:29:05.906Z,100674.03
2022-08-17T12:31:44.354Z,100671.03
2022-08-17T12:34:17.135Z,100669.69
2022-08-17T12:36:47.342Z,100668.16
2022-08-17T12:39:21.766Z,100657.16
2022-08-17T12:42:01.938Z,100660.78
2022-08-17T12:44:35.166Z,100661.97
2022-08-17T12:47:11.062Z,100666.38
2022-08-17T12:49:42.259Z,100653.91
2022-08-17T12:52:15.290Z,100650.44
2022-08-17T12:54:50.700Z,100657.88
2022-08-17T12:57:23.496Z,100647.97
2022-08-17T12:59:59.523Z,100634.41
2022-08-17T13:02:42.654Z,100636.03
2022-08-17T13:05:21.576Z,100622.88
2022-08-17T13:07:50.815Z,100627.25
2022-08-17T13:10:25.526Z,100623.56
2022-08-17T13:12:58.104Z,100625.66
2022-08-17T13:15:33.893Z,100616.13
2022-08-17T13:18:07.447Z,100628.13
2022-08-17T13:20:36.948Z,100627.28
2022-08-17T13:23:12.513Z,100625.16
2022-08-17T13:25:41.351Z,100624.66
2022-08-17T13:28:35.657Z,100628.22
2022-08-17T13:31:33.007Z,100625.41
2022-08-17T13:34:19.118Z,100614.13
2022-08-17T13:36:48.889Z,100619.88
2022-08-17T13:39:22.844Z,100622.31
2022-08-17T13:41:53.991Z,100611.00
2022-08-17T13:44:34.332Z,100606.88
2022-08-17T13:47:05.746Z,100611.31
2022-08-17T13:49:41.729Z,100616.91
2022-08-17T13:52:37.923Z,100625.78
2022-08-17T13:55:10.236Z,100613.72
2022-08-17T13:57:38.832Z,100615.00
2022-08-17T14:00:13.967Z,100613.50
2022-08-17T14:02:44.042Z,100622.06
2022-08-17T14:05:12.650Z,100618.81
2022-08-17T14:07:41.317Z,100620.75
2022-08-17T14:10:13.966Z,100614.53
2022-08-17T14:12:44.648Z,100608.19
2022-08-17T14:15:15.441Z,100604.31
2022-08-17T14:17:45.318Z,100604.78
2022-08-17T14:20:14.952Z,100596.47
2022-08-17T14:22:46.614Z,100599.41
2022-08-17T14:25:18.695Z,100602.53
2022-08-17T14:27:52.942Z,100606.59
2022-08-17T14:30:29.141Z,100598.41
2022-08-17T14:33:02.090Z,100602.78
2022-08-17T14:35:31.160Z,100602.94
2022-08-17T14:37:59.688Z,100599.25
2022-08-17T14:40:28.156Z,100600.56
2022-08-17T14:42:58.477Z,100594.31
2022-08-17T14:45:32.325Z,100592.94
2022-08-17T14:48:07.951Z,100591.94
2022-08-17T14:50:38.358Z,100596.38
2022-08-17T14:53:08.784Z,100597.94
2022-08-17T14:55:39.948Z,100598.25
2022-08-17T14:58:09.020Z,100603.38
2022-08-17T15:00:39.444Z,100603.63
2022-08-17T15:03:11.470Z,100600.97
2022-08-17T15:05:40.693Z,100595.78
2022-08-17T15:08:09.311Z,100595.59
2022-08-17T15:10:39.056Z,100597.13
2022-08-17T15:13:18.168Z,100590.78
2022-08-17T15:15:46.819Z,100599.31
2022-08-17T15:18:17.508Z,100597.69
2022-08-17T15:20:48.657Z,100598.28
2022-08-17T15:23:19.977Z,100602.28
2022-08-17T15:25:50.489Z,100595.66
2022-08-17T15:28:20.597Z,100596.72
2022-08-17T15:30:49.321Z,100596.56
2022-08-17T15:33:22.324Z,100594.28
2022-08-17T15:35:53.365Z,100594.06
2022-08-17T15:38:23.531Z,100599.25
2022-08-17T15:40:53.879Z,100595.41
2022-08-17T15:43:27.975Z,100594.34
2022-08-17T15:46:00.740Z,100590.28
2022-08-17T15:48:42.210Z,100582.06
2022-08-17T15:51:13.348Z,100580.88
2022-08-17T15:53:43.649Z,100577.66
2022-08-17T15:56:15.181Z,100569.94
2022-08-17T15:58:46.742Z,100575.72
2022-08-17T16:01:18.687Z,100564.66
2022-08-17T16:04:26.370Z,100571.75
2022-08-17T16:06:54.051Z,100569.00
2022-08-17T16:09:23.056Z,100573.81
2022-08-17T16:11:52.197Z,100568.25
2022-08-17T16:14:24.124Z,100560.38
2022-08-17T16:16:52.792Z,100557.56
2022-08-17T16:19:25.291Z,100566.91
2022-08-17T16:21:53.800Z,100557.84
2022-08-17T16:24:22.358Z,100564.16
2022-08-17T16:26:50.908Z,100566.56
2022-08-17T16:29:19.558Z,100564.28
2022-08-17T16:31:48.231Z,100565.16
2022-08-17T16:34:18.891Z,100563.78
2022-08-17T16:36:55.540Z,100561.50
2022-08-17T16:39:29.082Z,100563.06
2022-08-17T16:41:58.439Z,100560.88
2022-08-17T16:44:29.046Z,100554.00
2022-08-17T16:46:58.504Z,100556.03
2022-08-17T16:49:36.694Z,100562.53
2022-08-17T16:52:11.273Z,100561.97
2022-08-17T16:54:43.731Z,100558.50
2022-08-17T16:57:13.491Z,100554.31
2022-08-17T16:59:47.767Z,100557.34
2022-08-17T17:02:18.368Z,100558.50
2022-08-17T17:04:53.179Z,100548.16
2022-08-17T17:07:38.887Z,100551.19
2022-08-17T17:10:11.937Z,100546.19
2022-08-17T17:13:26.800Z,100551.94
2022-08-17T17:28:56.782Z,100557.41
2022-08-17T17:31:29.525Z,100560.63
2022-08-17T17:34:00.901Z,100554.09
2022-08-17T17:36:35.711Z,100558.25
2022-08-17T17:39:07.492Z,100558.72
2022-08-17T17:41:47.179Z,100559.19
2022-08-17T17:44:19.703Z,100549.03
2022-08-17T17:46:54.308Z,100551.19
2022-08-17T17:49:23.295Z,100547.03
2022-08-17T17:52:10.003Z,100548.50
2022-08-17T17:55:03.179Z,100544.38
2022-08-17T17:57:45.554Z,100551.09
2022-08-17T18:00:17.954Z,100548.84
2022-08-17T18:03:07.918Z,100556.41
2022-08-17T18:05:49.958Z,100553.28
2022-08-17T18:08:32.244Z,100563.38
2022-08-17T18:11:24.129Z,100555.06
2022-08-17T18:14:08.987Z,100558.84
2022-08-17T18:16:37.637Z,100563.75
2022-08-17T18:19:07.138Z,100568.56
2022-08-17T18:21:38.205Z,100570.63
2022-08-17T18:24:10.485Z,100566.44
2022-08-17T18:26:47.970Z,100557.06
2022-08-17T18:29:31.383Z,100565.34
2022-08-17T18:32:23.605Z,100561.22
2022-08-17T18:34:54.400Z,100579.44
2022-08-17T18:37:47.718Z,100581.53
2022-08-17T18:40:38.216Z,100577.28
2022-08-17T18:43:13.396Z,100576.66
2022-08-17T18:45:47.904Z,100580.34
2022-08-17T18:48:23.666Z,100578.75
2022-08-17T18:50:54.561Z,100579.78
2022-08-17T18:53:33.143Z,100575.53
2022-08-17T18:56:30.935Z,100575.75
2022-08-17T18:59:25.187Z,100580.50
2022-08-17T19:02:32.492Z,100585.13
2022-08-17T19:05:13.331Z,100583.63
2022-08-17T19:07:42.771Z,100586.44
2022-08-17T19:10:24.552Z,100587.63
2022-08-17T19:13:00.204Z,100582.56
2022-08-17T19:15:35.169Z,100573.03
2022-08-17T19:18:15.704Z,100573.28
2022-08-17T19:20:48.840Z,100581.44
2022-08-17T19:23:24.925Z,100579.84
2022-08-17T19:25:58.431Z,100584.47
2022-08-17T19:28:30.686Z,100578.41
2022-08-17T19:31:03.069Z,100576.75
2022-08-17T19:33:33.065Z,100576.81
2022-08-17T19:36:09.186Z,100582.31
2022-08-17T19:38:45.775Z,100584.31
2022-08-17T19:41:23.777Z,100581.72
2022-08-17T19:44:14.249Z,100578.34
2022-08-17T19:46:56.163Z,100579.44
2022-08-17T19:49:41.458Z,100587.59
2022-08-17T19:52:24.148Z,100578.78
2022-08-17T19:54:59.526Z,100572.72
2022-08-17T19:57:49.100Z,100573.72
2022-08-17T20:00:19.420Z,100569.44
2022-08-17T20:02:55.015Z,100575.78
2022-08-17T20:05:37.277Z,100562.66
2022-08-17T20:08:21.878Z,100563.75
2022-08-17T20:10:55.372Z,100566.63
2022-08-17T20:13:33.515Z,100574.69
2022-08-17T20:16:03.149Z,100568.63
2022-08-17T20:18:37.814Z,100564.28
2022-08-17T20:21:19.970Z,100565.31
2022-08-17T20:23:57.156Z,100562.81
2022-08-17T20:26:29.274Z,100567.38
2022-08-17T20:29:37.423Z,100563.09
2022-08-17T20:32:26.534Z,100561.50
2022-08-17T20:35:19.267Z,100559.75
2022-08-17T20:37:59.049Z,100562.56
2022-08-17T20:40:34.689Z,100563.50
2022-08-17T20:43:37.021Z,100568.81
2022-08-17T20:46:13.942Z,100565.34
2022-08-17T20:48:45.823Z,100565.34
2022-08-17T20:51:24.113Z,100564.59
2022-08-17T20:54:36.634Z,100575.22
2022-08-17T20:57:06.088Z,100574.28
2022-08-17T21:00:02.793Z,100577.00
2022-08-17T21:02:32.345Z,100574.41
2022-08-17T21:05:30.237Z,100581.47
2022-08-17T21:08:02.516Z,100571.59
2022-08-17T21:10:37.601Z,100573.25
2022-08-17T21:13:32.968Z,100568.69
2022-08-17T21:16:08.783Z,100570.53
2022-08-17T21:18:42.834Z,100576.88
2022-08-17T21:21:24.026Z,100581.47
2022-08-17T21:24:07.954Z,100577.31
2022-08-17T21:26:51.093Z,100575.88
2022-08-17T21:29:31.859Z,100586.75
2022-08-17T21:32:25.177Z,100585.97
2022-08-17T21:35:23.493Z,100589.47
2022-08-17T21:37:56.740Z,100586.78
2022-08-17T21:40:27.853Z,100589.56
2022-08-17T21:43:01.477Z,100583.50
2022-08-17T21:45:35.082Z,100580.16
2022-08-17T21:48:14.961Z,100584.75
2022-08-17T21:50:57.201Z,100582.34
2022-08-17T21:53:33.429Z,100580.81
2022-08-17T21:56:02.214Z,100577.53
2022-08-17T21:58:36.021Z,100578.59
2022-08-17T22:01:21.060Z,100584.03
2022-08-17T22:03:57.853Z,100592.13
2022-08-17T22:06:29.713Z,100594.13
2022-08-17T22:09:00.881Z,100586.34
2022-08-17T22:11:29.420Z,100592.69
2022-08-17T22:14:05.306Z,100589.19
2022-08-17T22:16:34.856Z,100588.44
2022-08-17T22:19:06.545Z,100592.06
2022-08-17T22:21:35.023Z,100592.16
2022-08-17T22:24:06.618Z,100581.63
2022-08-17T22:27:02.768Z,100587.03
2022-08-17T22:29:48.535Z,100585.22
2022-08-17T22:32:38.644Z,100592.41
2022-08-17T22:35:18.233Z,100603.16
2022-08-17T22:37:46.742Z,100596.25
2022-08-17T22:40:26.226Z,100594.50
2022-08-17T22:42:54.733Z,100596.34
2022-08-17T22:45:25.246Z,100592.00
2022-08-17T22:47:56.540Z,100600.03
2022-08-17T22:50:27.774Z,100603.78
2022-08-17T22:53:19.782Z,100605.75
2022-08-17T22:56:11.286Z,100598.78
2022-08-17T22:59:06.569Z,100598.88
2022-08-17T23:01:36.586Z,100602.59
2022-08-17T23:04:08.169Z,100601.78
2022-08-17T23:06:39.662Z,100606.31
2022-08-17T23:09:08.717Z,100598.38
2022-08-17T23:11:49.307Z,100595.84
2022-08-17T23:14:20.785Z,100602.06
2022-08-17T23:16:51.259Z,100603.88
2022-08-17T23:19:22.432Z,100596.66
2022-08-17T23:21:55.364Z,100594.00
2022-08-17T23:24:27.445Z,100594.00
2022-08-17T23:26:57.311Z,100594.00
2022-08-17T23:29:26.291Z,100587.88
2022-08-17T23:31:59.820Z,100592.25
2022-08-17T23:34:29.283Z,100590.59
2022-08-17T23:36:57.931Z,100590.63
2022-08-17T23:39:28.010Z,100586.28
2022-08-17T23:41:58.293Z,100585.50
2022-08-17T23:44:26.980Z,100582.88
2022-08-17T23:46:57.231Z,100589.19
2022-08-17T23:49:26.158Z,100579.47
2022-08-17T23:51:54.743Z,100583.97
2022-08-17T23:54:27.995Z,100584.03
2022-08-17T23:56:56.574Z,100587.69
2022-08-17T23:59:26.970Z,100585.06
